Time;durP1;ratioP1;P1;durP2;ratioP2;P2;SDS_P1;SDS_P2;PMS_P1;PMS_P2;Temp;Humidity;BMP_temperature;BMP_pressure;BME280_temperature;BME280_humidity;BME280_pressure;Samples;Min_cycle;Max_cycle;Signal;HPM_P1;HPM_P2
2020/12/30 00:02:25;;;;;;;7.90;4.47;;;2.00;79.80;;;;;;5131111;27;20543;-76
2020/12/30 00:04:52;;;;;;;6.20;4.70;;;1.90;79.20;;;;;;5131255;27;20560;-77
2020/12/30 00:07:19;;;;;;;10.23;4.60;;;1.90;79.30;;;;;;5125076;27;20562;-76
2020/12/30 00:09:45;;;;;;;4.80;4.10;;;1.90;79.20;;;;;;5129006;27;20623;-77
2020/12/30 00:12:12;;;;;;;4.00;3.60;;;2.10;79.30;;;;;;5129179;27;20457;-76
2020/12/30 00:14:38;;;;;;;4.80;4.40;;;2.00;78.70;;;;;;5130717;27;20460;-75
2020/12/30 00:17:05;;;;;;;4.43;4.03;;;2.10;78.90;;;;;;5127522;27;21014;-76
2020/12/30 00:19:31;;;;;;;6.90;4.90;;;2.10;78.80;;;;;;5124312;27;20436;-76
2020/12/30 00:21:58;;;;;;;6.17;3.90;;;2.10;78.40;;;;;;5127289;27;20465;-75
2020/12/30 00:24:25;;;;;;;5.27;4.10;;;2.10;78.20;;;;;;5130295;27;20543;-76
2020/12/30 00:26:51;;;;;;;5.60;4.27;;;2.10;78.40;;;;;;5126879;27;20449;-76
2020/12/30 00:29:17;;;;;;;4.30;3.90;;;2.00;77.90;;;;;;5129888;27;20547;-75
2020/12/30 00:31:44;;;;;;;8.17;3.80;;;2.10;78.40;;;;;;5126365;27;20447;-76
2020/12/30 00:34:10;;;;;;;5.03;4.20;;;2.00;77.80;;;;;;5130332;27;20461;-76
2020/12/30 00:36:38;;;;;;;4.37;3.70;;;2.00;77.90;;;;;;5126866;27;20446;-76
2020/12/30 00:39:04;;;;;;;5.77;3.87;;;2.10;78.40;;;;;;5129005;27;20504;-76
2020/12/30 00:41:31;;;;;;;7.20;4.47;;;2.00;78.30;;;;;;5124812;27;20476;-77
2020/12/30 00:43:58;;;;;;;4.93;4.00;;;2.00;78.50;;;;;;5127220;27;20483;-77
2020/12/30 00:46:24;;;;;;;5.80;4.10;;;2.00;78.60;;;;;;5135655;27;20447;-77
2020/12/30 00:48:54;;;;;;;4.20;3.80;;;2.00;78.30;;;;;;5130977;27;20490;-75
2020/12/30 00:51:20;;;;;;;6.23;3.70;;;2.00;78.50;;;;;;5131402;27;20532;-76
2020/12/30 00:53:47;;;;;;;4.50;3.80;;;2.00;78.30;;;;;;5134254;27;20542;-75
2020/12/30 00:56:15;;;;;;;3.97;3.67;;;2.00;78.30;;;;;;5128292;27;20458;-77
2020/12/30 00:58:42;;;;;;;4.60;4.13;;;1.90;78.50;;;;;;5128662;27;20475;-76
2020/12/30 01:01:09;;;;;;;5.77;4.07;;;1.90;78.50;;;;;;5129767;27;20441;-76
2020/12/30 01:03:37;;;;;;;7.40;4.30;;;1.80;78.30;;;;;;5129667;27;20481;-77
2020/12/30 01:06:04;;;;;;;4.87;4.27;;;1.90;78.80;;;;;;5128255;27;20959;-76
2020/12/30 01:08:30;;;;;;;6.03;3.77;;;1.80;79.00;;;;;;5128992;27;20486;-76
2020/12/30 01:10:57;;;;;;;8.03;4.13;;;1.80;79.20;;;;;;5133770;27;20530;-76
2020/12/30 01:13:23;;;;;;;8.70;3.97;;;1.80;78.90;;;;;;5126930;27;20594;-75
2020/12/30 01:15:50;;;;;;;4.80;3.60;;;1.70;78.90;;;;;;5129618;27;20618;-77
2020/12/30 01:18:17;;;;;;;5.83;3.60;;;1.90;79.60;;;;;;5129438;27;20533;-76
2020/12/30 01:20:43;;;;;;;6.33;4.03;;;1.70;79.10;;;;;;5131173;27;20947;-76
2020/12/30 01:23:10;;;;;;;6.10;4.57;;;1.80;80.20;;;;;;5135563;27;20488;-77
2020/12/30 01:25:36;;;;;;;5.70;4.53;;;1.70;79.60;;;;;;5131974;27;20444;-76
2020/12/30 01:28:04;;;;;;;3.33;3.13;;;1.60;79.30;;;;;;5132034;27;21104;-76
2020/12/30 01:30:31;;;;;;;4.23;3.53;;;1.60;80.10;;;;;;5129063;27;20470;-76
2020/12/30 01:32:58;;;;;;;9.07;4.30;;;1.50;80.10;;;;;;5132861;27;20446;-77
2020/12/30 01:35:24;;;;;;;4.03;3.63;;;1.40;80.20;;;;;;5129211;27;20461;-77
2020/12/30 01:37:51;;;;;;;7.20;3.83;;;1.30;80.80;;;;;;5134758;27;20964;-75
2020/12/30 01:40:21;;;;;;;5.40;4.13;;;1.40;82.20;;;;;;5129553;27;20455;-76
2020/12/30 01:42:49;;;;;;;6.40;4.40;;;1.50;82.80;;;;;;5131446;27;20868;-76
2020/12/30 01:45:17;;;;;;;4.47;4.07;;;1.60;82.30;;;;;;5129372;27;20548;-77
2020/12/30 01:47:50;;;;;;;5.23;3.80;;;1.60;82.10;;;;;;5132402;27;20452;-75
2020/12/30 01:50:17;;;;;;;4.97;3.93;;;1.60;82.10;;;;;;5131063;27;20536;-76
2020/12/30 01:52:44;;;;;;;4.73;3.63;;;1.60;82.00;;;;;;5129082;27;20445;-75
2020/12/30 01:55:11;;;;;;;6.33;4.53;;;1.70;82.30;;;;;;5129970;27;20970;-77
2020/12/30 01:57:38;;;;;;;6.60;4.03;;;1.70;81.20;;;;;;5129713;27;20456;-76
2020/12/30 02:00:07;;;;;;;5.23;3.90;;;1.80;81.10;;;;;;5128182;27;21057;-76
2020/12/30 02:02:35;;;;;;;5.03;4.30;;;1.70;80.50;;;;;;5127567;27;20484;-75
2020/12/30 02:05:02;;;;;;;7.00;4.47;;;1.70;80.80;;;;;;5124934;27;20864;-76
2020/12/30 02:07:30;;;;;;;4.47;4.07;;;1.70;80.90;;;;;;5127259;27;20454;-75
2020/12/30 02:09:58;;;;;;;5.47;4.23;;;1.70;80.90;;;;;;5131270;27;20454;-75
2020/12/30 02:12:27;;;;;;;7.27;4.83;;;1.80;81.10;;;;;;5129080;27;20445;-76
2020/12/30 02:14:53;;;;;;;5.20;3.80;;;1.80;81.10;;;;;;5126329;27;20543;-75
2020/12/30 02:17:21;;;;;;;5.80;4.10;;;1.90;81.00;;;;;;5126611;27;20581;-75
2020/12/30 02:19:48;;;;;;;7.30;4.40;;;1.80;80.80;;;;;;5128639;27;20507;-77
2020/12/30 02:22:20;;;;;;;7.60;4.50;;;1.80;81.70;;;;;;5126190;27;20552;-77
2020/12/30 02:24:48;;;;;;;5.03;4.53;;;1.80;81.20;;;;;;5128433;27;20547;-76
2020/12/30 02:27:14;;;;;;;4.50;4.10;;;1.80;80.90;;;;;;5124849;27;20444;-76
2020/12/30 02:29:43;;;;;;;5.30;4.23;;;1.90;81.10;;;;;;5123094;27;20494;-75
2020/12/30 02:32:09;;;;;;;6.00;4.63;;;1.90;80.50;;;;;;5125943;27;20506;-75
2020/12/30 02:34:36;;;;;;;7.03;4.60;;;1.90;80.50;;;;;;5125089;27;20493;-75
2020/12/30 02:37:02;;;;;;;4.07;3.70;;;1.90;80.30;;;;;;5125201;27;20472;-75
2020/12/30 02:39:31;;;;;;;4.73;4.33;;;1.90;80.10;;;;;;5125629;27;20495;-75
2020/12/30 02:41:58;;;;;;;5.23;3.83;;;1.90;80.20;;;;;;5126673;27;20469;-76
2020/12/30 02:44:25;;;;;;;5.90;3.83;;;1.90;80.00;;;;;;5131020;27;20862;-76
2020/12/30 02:46:54;;;;;;;4.47;4.07;;;1.80;79.90;;;;;;5123164;27;20475;-76
2020/12/30 02:49:20;;;;;;;5.20;4.20;;;1.80;79.90;;;;;;5129953;27;20549;-76
2020/12/30 02:51:47;;;;;;;6.47;4.70;;;1.70;80.40;;;;;;5127622;27;20445;-76
2020/12/30 02:54:14;;;;;;;4.77;4.37;;;1.60;80.70;;;;;;5129896;27;20453;-76
2020/12/30 02:56:40;;;;;;;7.80;5.00;;;1.50;81.20;;;;;;5129457;27;20476;-75
2020/12/30 02:59:07;;;;;;;5.93;5.17;;;1.40;82.40;;;;;;5124578;27;20865;-75
2020/12/30 03:01:34;;;;;;;6.00;4.30;;;1.20;83.40;;;;;;5127693;27;20472;-74
2020/12/30 03:04:01;;;;;;;5.40;4.57;;;1.10;84.70;;;;;;5121525;27;20457;-74
2020/12/30 03:06:29;;;;;;;7.20;5.50;;;1.00;85.70;;;;;;5127124;27;20453;-74
2020/12/30 03:08:55;;;;;;;5.57;5.07;;;1.00;87.10;;;;;;5126255;27;20989;-74
2020/12/30 03:11:25;;;;;;;8.27;5.63;;;0.90;87.80;;;;;;5128341;27;20463;-74
2020/12/30 03:13:52;;;;;;;6.50;5.27;;;0.90;88.80;;;;;;5118736;27;20451;-74
2020/12/30 03:16:19;;;;;;;6.37;5.80;;;0.70;89.20;;;;;;5122269;27;20507;-74
2020/12/30 03:18:45;;;;;;;7.60;6.03;;;0.60;90.10;;;;;;5120219;27;20534;-74
2020/12/30 03:21:12;;;;;;;6.70;5.73;;;0.70;90.70;;;;;;5128395;27;20538;-74
2020/12/30 03:23:38;;;;;;;6.33;5.70;;;0.50;91.30;;;;;;5124368;27;20524;-74
2020/12/30 03:26:05;;;;;;;5.50;5.00;;;0.50;92.60;;;;;;5126716;27;20491;-74
2020/12/30 03:28:35;;;;;;;12.40;6.40;;;0.40;92.80;;;;;;5124783;27;20585;-74
2020/12/30 03:31:01;;;;;;;7.17;6.33;;;0.40;93.50;;;;;;5127439;27;20473;-74
2020/12/30 03:33:31;;;;;;;6.40;5.80;;;0.40;93.70;;;;;;5125494;27;20990;-74
2020/12/30 03:35:57;;;;;;;6.60;5.90;;;0.30;94.10;;;;;;5128047;27;20500;-74
2020/12/30 03:38:23;;;;;;;7.37;6.50;;;0.30;95.00;;;;;;5128707;27;20442;-74
2020/12/30 03:40:50;;;;;;;7.60;5.80;;;0.20;95.50;;;;;;5123863;27;20495;-74
2020/12/30 03:43:17;;;;;;;9.07;7.17;;;0.20;95.70;;;;;;5123876;27;20460;-74
2020/12/30 03:45:44;;;;;;;8.80;7.07;;;0.10;96.90;;;;;;5124196;27;20941;-74
2020/12/30 03:48:10;;;;;;;8.80;6.30;;;0.10;96.70;;;;;;5127787;27;20464;-75
2020/12/30 03:50:37;;;;;;;9.87;7.37;;;0.00;97.20;;;;;;5126523;27;20967;-74
2020/12/30 03:53:04;;;;;;;10.30;7.37;;;0.00;97.10;;;;;;5129710;27;20471;-74
2020/12/30 03:55:30;;;;;;;9.70;7.50;;;0.00;97.80;;;;;;5106492;27;20453;-74
2020/12/30 03:57:56;;;;;;;9.73;7.00;;;-0.10;97.20;;;;;;5125646;27;20463;-74
2020/12/30 04:00:23;;;;;;;7.70;6.53;;;-0.20;98.90;;;;;;5124944;27;20544;-75
2020/12/30 04:02:49;;;;;;;8.00;7.20;;;-0.20;99.90;;;;;;5125391;27;20459;-74
2020/12/30 04:05:16;;;;;;;9.77;7.07;;;-0.20;99.90;;;;;;5126724;27;20480;-74
2020/12/30 04:07:43;;;;;;;8.80;7.07;;;-0.20;99.90;;;;;;5128739;27;20452;-74
2020/12/30 04:10:09;;;;;;;12.63;7.10;;;-0.30;99.90;;;;;;5126066;27;20567;-74
2020/12/30 04:12:36;;;;;;;8.87;6.90;;;-0.30;99.90;;;;;;5128212;27;20562;-74
2020/12/30 04:15:02;;;;;;;8.93;7.70;;;-0.30;99.90;;;;;;5125773;27;20486;-73
2020/12/30 04:17:31;;;;;;;8.50;7.20;;;-0.40;99.90;;;;;;5124333;27;20960;-73
2020/12/30 04:20:06;;;;;;;11.80;7.40;;;-0.40;99.90;;;;;;5128452;27;20504;-74
2020/12/30 04:22:36;;;;;;;12.80;8.37;;;-0.40;99.90;;;;;;5124820;27;20531;-74
2020/12/30 04:25:03;;;;;;;7.90;7.10;;;-0.40;99.90;;;;;;5130476;27;20504;-74
2020/12/30 04:27:30;;;;;;;10.87;8.00;;;-0.40;99.90;;;;;;5131989;27;20488;-74
2020/12/30 04:29:56;;;;;;;10.43;7.57;;;-0.50;99.90;;;;;;5134878;27;20504;-74
2020/12/30 04:32:25;;;;;;;9.93;7.47;;;-0.50;99.90;;;;;;5129850;27;20974;-74
2020/12/30 04:34:52;;;;;;;10.83;8.00;;;-0.50;99.90;;;;;;5132790;27;20494;-74
2020/12/30 04:37:18;;;;;;;12.33;9.27;;;-0.50;99.90;;;;;;5127099;27;20500;-74
2020/12/30 04:39:44;;;;;;;13.23;8.80;;;-0.50;99.90;;;;;;5133392;27;20460;-74
2020/12/30 04:42:13;;;;;;;11.70;8.10;;;-0.60;99.90;;;;;;5129439;27;20482;-74
2020/12/30 04:44:45;;;;;;;9.73;8.57;;;-0.50;99.90;;;;;;5132314;27;20530;-74
2020/12/30 04:47:13;;;;;;;11.90;8.90;;;-0.50;99.90;;;;;;5128381;27;20474;-74
2020/12/30 04:49:39;;;;;;;12.50;8.80;;;-0.60;99.90;;;;;;5131758;27;20561;-74
2020/12/30 04:52:06;;;;;;;12.80;9.30;;;-0.60;99.90;;;;;;5130039;27;20467;-74
2020/12/30 04:54:34;;;;;;;11.57;8.97;;;-0.70;99.90;;;;;;5129091;27;20524;-74
2020/12/30 04:57:02;;;;;;;12.77;9.27;;;-0.60;99.90;;;;;;5123026;27;20450;-73
2020/12/30 04:59:35;;;;;;;13.67;9.67;;;-0.60;99.90;;;;;;5125571;27;20443;-73
2020/12/30 05:02:06;;;;;;;15.40;9.93;;;-0.70;99.90;;;;;;5121275;27;20434;-74
2020/12/30 05:04:33;;;;;;;14.57;9.90;;;-0.80;99.90;;;;;;5132249;27;20457;-75
2020/12/30 05:07:09;;;;;;;13.17;10.23;;;-0.80;99.90;;;;;;5128720;27;20441;-75
2020/12/30 05:09:36;;;;;;;12.53;9.70;;;-0.80;99.90;;;;;;5124830;27;20464;-74
2020/12/30 05:12:10;;;;;;;14.90;10.50;;;-0.90;99.90;;;;;;5131564;27;20492;-75
2020/12/30 05:14:40;;;;;;;12.20;10.57;;;-0.90;99.90;;;;;;5131848;27;20553;-73
2020/12/30 05:17:08;;;;;;;14.43;10.40;;;-0.90;99.90;;;;;;5134353;27;20438;-73
2020/12/30 05:19:35;;;;;;;13.77;10.50;;;-1.00;99.90;;;;;;5126794;27;20443;-74
2020/12/30 05:22:01;;;;;;;12.73;11.03;;;-1.00;99.90;;;;;;5131102;27;20527;-73
2020/12/30 05:24:28;;;;;;;17.37;11.70;;;-1.00;99.90;;;;;;5127386;27;20769;-73
2020/12/30 05:26:56;;;;;;;14.97;10.60;;;-1.00;99.90;;;;;;5129925;27;20514;-75
2020/12/30 05:29:26;;;;;;;17.13;11.00;;;-0.80;99.90;;;;;;5126854;27;20554;-74
2020/12/30 05:31:55;;;;;;;14.67;10.80;;;-0.70;99.90;;;;;;5128596;27;20452;-73
2020/12/30 05:34:23;;;;;;;17.00;12.20;;;-0.60;99.90;;;;;;5125027;27;20511;-74
2020/12/30 05:36:50;;;;;;;16.67;10.93;;;-0.40;99.90;;;;;;5126195;27;20524;-75
2020/12/30 05:39:20;;;;;;;18.33;11.53;;;-0.30;99.90;;;;;;5124916;28;20596;-74
2020/12/30 05:41:49;;;;;;;16.67;11.50;;;-0.10;99.90;;;;;;5128676;27;20450;-75
2020/12/30 05:44:19;;;;;;;15.60;11.43;;;-0.10;99.90;;;;;;5128782;27;20458;-75
2020/12/30 05:46:46;;;;;;;13.70;11.00;;;0.10;99.90;;;;;;5129527;27;20535;-75
2020/12/30 05:49:33;;;;;;;14.20;11.00;;;0.10;96.30;;;;;;5124497;27;21034;-76
2020/12/30 05:52:11;;;;;;;16.93;11.10;;;0.20;96.40;;;;;;5129544;27;20456;-76
2020/12/30 05:54:37;;;;;;;11.90;9.77;;;0.20;94.90;;;;;;5127275;27;20977;-76
2020/12/30 05:57:19;;;;;;;12.37;10.33;;;0.20;94.40;;;;;;5128707;27;20443;-75
2020/12/30 05:59:49;;;;;;;13.30;11.00;;;0.30;93.70;;;;;;5128042;27;20446;-76
2020/12/30 06:02:16;;;;;;;12.43;10.20;;;0.30;93.00;;;;;;5126912;27;20971;-77
2020/12/30 06:04:43;;;;;;;15.30;10.97;;;0.40;92.50;;;;;;5123689;27;20486;-77
2020/12/30 06:07:13;;;;;;;14.43;12.53;;;0.40;92.00;;;;;;5127276;27;20482;-76
2020/12/30 06:09:40;;;;;;;11.83;9.80;;;0.50;91.90;;;;;;5125653;27;20467;-75
2020/12/30 06:12:07;;;;;;;12.53;9.80;;;0.60;91.60;;;;;;5129965;27;20437;-75
2020/12/30 06:14:34;;;;;;;13.87;9.50;;;0.50;91.00;;;;;;5129383;27;20453;-77
2020/12/30 06:17:03;;;;;;;12.07;9.73;;;0.60;90.90;;;;;;5128796;27;20441;-76
2020/12/30 06:19:31;;;;;;;11.80;10.20;;;0.60;90.70;;;;;;5129360;27;20436;-76
2020/12/30 06:22:02;;;;;;;10.60;9.43;;;0.60;90.60;;;;;;5119901;27;20567;-77
2020/12/30 06:24:30;;;;;;;12.50;10.03;;;0.60;90.50;;;;;;5109205;27;605816;-76
2020/12/30 06:27:02;;;;;;;12.30;9.23;;;0.60;90.30;;;;;;5130401;27;20196;-77
2020/12/30 06:29:30;;;;;;;13.40;10.23;;;0.60;90.30;;;;;;5131071;27;21249;-75
2020/12/30 06:31:56;;;;;;;13.20;9.10;;;0.60;90.20;;;;;;5127634;27;20473;-78
2020/12/30 06:34:23;;;;;;;10.47;9.33;;;0.60;90.00;;;;;;5129062;27;20979;-76
2020/12/30 06:36:49;;;;;;;11.30;9.00;;;0.70;90.50;;;;;;5127282;27;20452;-76
2020/12/30 06:39:21;;;;;;;10.43;9.10;;;0.70;90.40;;;;;;5130207;27;20493;-76
2020/12/30 06:42:01;;;;;;;11.40;10.20;;;0.70;89.80;;;;;;5124397;27;20548;-76
2020/12/30 06:44:38;;;;;;;12.40;10.73;;;0.70;89.40;;;;;;5128182;27;20643;-76
2020/12/30 06:47:06;;;;;;;11.20;9.37;;;0.80;89.30;;;;;;5127270;27;20456;-76
2020/12/30 06:49:32;;;;;;;14.93;9.70;;;0.80;88.80;;;;;;5126360;27;20540;-76
2020/12/30 06:51:59;;;;;;;12.77;9.30;;;0.80;88.80;;;;;;5127174;27;20539;-76
2020/12/30 06:54:48;;;;;;;11.10;9.20;;;0.90;88.10;;;;;;5125787;27;20453;-76
2020/12/30 06:57:40;;;;;;;10.73;9.17;;;0.90;87.80;;;;;;5126826;27;20451;-75
2020/12/30 07:00:38;;;;;;;10.97;8.40;;;0.90;87.70;;;;;;5126442;27;20452;-77
2020/12/30 07:03:15;;;;;;;11.50;10.30;;;0.90;87.40;;;;;;5040820;28;20463;-76
2020/12/30 07:05:48;;;;;;;12.90;10.90;;;0.90;87.60;;;;;;5116286;27;20527;-78
2020/12/30 07:08:38;;;;;;;13.53;9.00;;;0.90;87.40;;;;;;5123073;27;20510;-76
2020/12/30 07:11:05;;;;;;;11.47;9.80;;;0.80;87.90;;;;;;5128665;27;20453;-76
2020/12/30 07:13:39;;;;;;;12.93;9.50;;;0.80;88.10;;;;;;5126971;27;20891;-75
2020/12/30 07:16:18;;;;;;;11.00;9.20;;;0.90;88.30;;;;;;5127676;27;20447;-76
2020/12/30 07:18:47;;;;;;;12.30;9.53;;;0.90;88.10;;;;;;5125825;27;20453;-76
2020/12/30 07:21:14;;;;;;;11.90;9.60;;;0.90;87.90;;;;;;5127470;27;20779;-76
2020/12/30 07:23:46;;;;;;;11.47;10.10;;;0.90;87.60;;;;;;5126201;27;20543;-76
2020/12/30 07:26:17;;;;;;;12.80;10.70;;;0.90;87.50;;;;;;5129014;27;20480;-75
2020/12/30 07:28:44;;;;;;;12.03;10.50;;;0.90;87.50;;;;;;5127556;27;20448;-73
2020/12/30 07:31:11;;;;;;;12.50;10.00;;;0.90;87.90;;;;;;5124912;27;21059;-74
2020/12/30 07:33:37;;;;;;;13.97;10.47;;;0.90;87.80;;;;;;5124260;27;20564;-74
2020/12/30 07:36:05;;;;;;;13.23;9.90;;;1.00;87.60;;;;;;5127377;27;20456;-74
2020/12/30 07:38:33;;;;;;;12.20;10.23;;;1.10;87.70;;;;;;5125906;27;21013;-74
2020/12/30 07:41:04;;;;;;;13.83;10.03;;;1.10;86.80;;;;;;5128147;27;20518;-74
2020/12/30 07:43:44;;;;;;;13.47;11.07;;;1.20;86.10;;;;;;5126430;27;20508;-74
2020/12/30 07:46:15;;;;;;;13.23;10.10;;;1.20;85.50;;;;;;5127389;27;20548;-74
2020/12/30 07:48:41;;;;;;;12.93;10.30;;;1.30;85.20;;;;;;5124752;27;20457;-75
2020/12/30 07:51:08;;;;;;;12.47;10.30;;;1.30;84.90;;;;;;5128698;27;20525;-73
2020/12/30 07:53:34;;;;;;;11.80;10.33;;;1.40;84.60;;;;;;5125978;27;20480;-74
2020/12/30 07:56:00;;;;;;;11.67;10.17;;;1.40;84.20;;;;;;5125777;27;20453;-73
2020/12/30 07:58:28;;;;;;;10.90;9.80;;;1.50;83.80;;;;;;5125821;27;20558;-74
2020/12/30 08:00:56;;;;;;;12.40;9.97;;;1.60;83.60;;;;;;5126757;27;20480;-74
2020/12/30 08:03:22;;;;;;;13.33;9.23;;;1.60;84.10;;;;;;5129185;27;20444;-74
2020/12/30 08:05:51;;;;;;;11.73;10.07;;;1.70;84.50;;;;;;5123735;27;20465;-74
2020/12/30 08:08:18;;;;;;;12.47;10.40;;;1.80;83.00;;;;;;5132860;27;20443;-73
2020/12/30 08:10:48;;;;;;;12.33;10.73;;;1.70;81.20;;;;;;5132908;27;20475;-74
2020/12/30 08:13:17;;;;;;;10.70;9.60;;;1.70;81.30;;;;;;5134546;27;20973;-73
2020/12/30 08:15:51;;;;;;;11.33;9.07;;;1.70;81.00;;;;;;5128401;27;20466;-74
2020/12/30 08:18:19;;;;;;;12.33;10.70;;;1.70;81.20;;;;;;5126488;27;20447;-74
2020/12/30 08:20:45;;;;;;;10.87;9.57;;;1.70;81.40;;;;;;5124622;27;20442;-74
2020/12/30 08:23:18;;;;;;;12.60;10.53;;;1.80;81.50;;;;;;5128996;27;20451;-74
2020/12/30 08:25:47;;;;;;;13.50;9.60;;;1.80;81.40;;;;;;5126124;27;20459;-74
2020/12/30 08:28:14;;;;;;;11.10;10.00;;;1.90;80.70;;;;;;5124681;27;20522;-74
2020/12/30 08:30:44;;;;;;;12.60;10.10;;;2.00;80.50;;;;;;5126253;27;21068;-74
2020/12/30 08:33:13;;;;;;;13.40;10.10;;;1.90;80.40;;;;;;5128019;27;20476;-74
2020/12/30 08:35:47;;;;;;;12.77;10.47;;;1.80;80.50;;;;;;5124114;27;20448;-75
2020/12/30 08:38:17;;;;;;;14.80;10.50;;;1.70;80.90;;;;;;5126884;27;20450;-74
2020/12/30 08:40:46;;;;;;;12.00;10.50;;;1.70;81.50;;;;;;5125807;27;20447;-74
2020/12/30 08:43:33;;;;;;;11.93;10.37;;;1.70;81.90;;;;;;5128226;27;20449;-75
2020/12/30 08:46:06;;;;;;;14.00;10.73;;;1.70;81.70;;;;;;5121908;27;20522;-74
2020/12/30 08:48:41;;;;;;;14.33;10.60;;;1.90;82.20;;;;;;5124190;27;20479;-74
2020/12/30 08:51:09;;;;;;;11.80;10.70;;;1.90;81.80;;;;;;5121842;27;20484;-74
2020/12/30 08:53:36;;;;;;;14.80;12.10;;;2.10;81.30;;;;;;5123873;27;20471;-74
2020/12/30 08:56:04;;;;;;;15.33;11.30;;;2.30;80.10;;;;;;5125044;27;20802;-74
2020/12/30 08:58:31;;;;;;;12.57;10.50;;;2.50;79.70;;;;;;5119735;27;20448;-74
2020/12/30 09:00:58;;;;;;;12.47;10.70;;;2.70;78.90;;;;;;5126078;27;20478;-74
2020/12/30 09:03:28;;;;;;;12.97;11.33;;;2.60;77.60;;;;;;5126691;27;20806;-75
2020/12/30 09:05:56;;;;;;;13.53;11.40;;;2.60;77.70;;;;;;5128881;27;20474;-75
2020/12/30 09:08:26;;;;;;;12.70;10.30;;;2.70;77.70;;;;;;5125898;27;20464;-76
2020/12/30 09:10:53;;;;;;;16.83;10.67;;;2.60;77.40;;;;;;5128388;27;20494;-75
2020/12/30 09:13:24;;;;;;;12.23;10.80;;;2.70;77.30;;;;;;5124993;27;20472;-75
2020/12/30 09:15:58;;;;;;;12.10;10.30;;;2.80;77.30;;;;;;5125439;27;20788;-75
2020/12/30 09:18:28;;;;;;;13.77;10.70;;;2.80;77.00;;;;;;5124557;27;20551;-75
2020/12/30 09:20:58;;;;;;;12.23;11.00;;;2.80;77.00;;;;;;5130031;27;20532;-75
2020/12/30 09:23:28;;;;;;;15.13;10.40;;;3.00;76.50;;;;;;5127991;27;20939;-75
2020/12/30 09:25:56;;;;;;;10.80;9.70;;;3.10;76.30;;;;;;5130241;27;21015;-75
2020/12/30 09:28:24;;;;;;;12.40;10.07;;;3.30;75.50;;;;;;5127193;27;20515;-75
2020/12/30 09:30:52;;;;;;;14.23;11.27;;;3.30;75.20;;;;;;5129205;27;20467;-75
2020/12/30 09:33:20;;;;;;;10.33;9.23;;;3.40;75.00;;;;;;5125755;27;20548;-76
2020/12/30 09:35:47;;;;;;;10.63;9.57;;;3.50;74.20;;;;;;5129454;27;20464;-76
2020/12/30 09:38:17;;;;;;;11.60;10.40;;;3.60;74.30;;;;;;5128466;27;20480;-76
2020/12/30 09:40:46;;;;;;;11.40;10.27;;;3.70;74.20;;;;;;5129039;27;20476;-76
2020/12/30 09:43:14;;;;;;;13.77;8.87;;;3.90;74.00;;;;;;5129814;27;20990;-76
2020/12/30 09:45:43;;;;;;;9.47;8.57;;;4.10;73.80;;;;;;5132078;27;20457;-76
2020/12/30 09:48:11;;;;;;;10.23;9.13;;;4.10;73.70;;;;;;5132878;27;20496;-76
2020/12/30 09:50:38;;;;;;;8.87;7.93;;;4.30;74.50;;;;;;5133751;27;20483;-75
2020/12/30 09:53:05;;;;;;;11.10;9.37;;;4.30;73.60;;;;;;5135268;27;20456;-76
2020/12/30 09:55:31;;;;;;;10.77;9.27;;;4.40;72.70;;;;;;5136681;27;20449;-77
2020/12/30 09:57:59;;;;;;;10.60;9.33;;;4.50;72.90;;;;;;5144175;27;20860;-79
2020/12/30 10:00:28;;;;;;;11.30;9.60;;;4.60;72.40;;;;;;5152852;27;20469;-79
2020/12/30 10:02:54;;;;;;;10.73;9.33;;;4.60;71.90;;;;;;5149043;27;20442;-79
2020/12/30 10:05:21;;;;;;;10.70;9.60;;;4.70;71.80;;;;;;5148913;27;20466;-79
2020/12/30 10:07:48;;;;;;;10.93;9.40;;;4.80;71.50;;;;;;5148650;27;20453;-79
2020/12/30 10:10:14;;;;;;;10.73;9.63;;;4.70;71.40;;;;;;5139363;27;20464;-78
2020/12/30 10:12:42;;;;;;;10.30;9.30;;;4.70;71.20;;;;;;5149671;27;20510;-78
2020/12/30 10:15:11;;;;;;;10.00;8.77;;;4.70;71.20;;;;;;5137858;27;20511;-77
2020/12/30 10:17:38;;;;;;;9.80;8.80;;;4.70;71.20;;;;;;5143696;27;20471;-79
2020/12/30 10:20:06;;;;;;;10.93;9.83;;;4.70;70.90;;;;;;5141842;27;20445;-79
2020/12/30 10:22:33;;;;;;;9.77;8.77;;;4.70;71.10;;;;;;5147799;27;20446;-78
2020/12/30 10:25:01;;;;;;;9.70;8.23;;;4.70;71.00;;;;;;5147740;27;20457;-79
2020/12/30 10:27:27;;;;;;;12.17;8.50;;;4.60;70.80;;;;;;5140399;27;20446;-79
2020/12/30 10:29:54;;;;;;;10.10;8.87;;;4.60;71.10;;;;;;5138019;27;20469;-78
2020/12/30 10:32:21;;;;;;;10.43;9.00;;;4.80;70.90;;;;;;5139152;27;20457;-78
2020/12/30 10:34:48;;;;;;;9.90;8.90;;;5.10;70.70;;;;;;5136917;27;20532;-79
2020/12/30 10:37:17;;;;;;;9.60;8.23;;;5.20;70.30;;;;;;5145316;27;20509;-80
2020/12/30 10:39:45;;;;;;;8.87;7.87;;;5.10;70.10;;;;;;5138260;27;20469;-78
2020/12/30 10:42:11;;;;;;;8.57;7.77;;;5.20;70.20;;;;;;5138344;27;20453;-80
2020/12/30 10:44:38;;;;;;;8.67;7.63;;;5.20;69.80;;;;;;5136419;27;20450;-80
2020/12/30 10:47:04;;;;;;;9.30;8.03;;;5.30;70.20;;;;;;5138728;27;20450;-80
2020/12/30 10:49:32;;;;;;;12.50;9.13;;;5.40;69.90;;;;;;5138264;27;20453;-79
2020/12/30 10:52:00;;;;;;;9.50;8.53;;;5.40;69.60;;;;;;5141251;27;20461;-79
2020/12/30 10:54:27;;;;;;;9.20;8.30;;;5.50;69.60;;;;;;5145046;27;20445;-79
2020/12/30 10:56:55;;;;;;;9.57;8.20;;;5.60;69.50;;;;;;5141567;27;20932;-80
2020/12/30 10:59:24;;;;;;;9.43;8.10;;;5.60;69.50;;;;;;5147310;27;20441;-79
2020/12/30 11:01:51;;;;;;;8.53;7.63;;;5.60;69.30;;;;;;5144830;27;20453;-79
2020/12/30 11:04:23;;;;;;;9.03;7.57;;;5.70;69.30;;;;;;5149123;27;20471;-79
2020/12/30 11:06:51;;;;;;;9.53;7.50;;;5.70;69.00;;;;;;5145746;27;20560;-79
2020/12/30 11:09:17;;;;;;;8.70;7.87;;;5.70;68.80;;;;;;5154185;27;20437;-83
2020/12/30 11:11:44;;;;;;;8.77;7.80;;;5.60;68.80;;;;;;5139015;27;20469;-78
2020/12/30 11:14:11;;;;;;;9.70;8.53;;;5.60;68.80;;;;;;5149309;27;20522;-79
2020/12/30 11:16:37;;;;;;;9.70;7.20;;;5.70;68.80;;;;;;5134961;27;20453;-78
2020/12/30 11:19:03;;;;;;;8.07;7.27;;;5.50;68.90;;;;;;5139817;27;20476;-77
2020/12/30 11:21:30;;;;;;;7.17;6.47;;;5.60;68.80;;;;;;5146116;27;20471;-78
2020/12/30 11:23:57;;;;;;;7.80;7.00;;;5.70;68.70;;;;;;5137948;27;20462;-77
2020/12/30 11:26:24;;;;;;;7.67;6.97;;;5.90;68.10;;;;;;5160293;27;20434;-86
2020/12/30 11:28:50;;;;;;;7.60;6.83;;;6.00;68.10;;;;;;5165488;27;20468;-84
2020/12/30 11:31:17;;;;;;;9.00;7.33;;;6.10;67.80;;;;;;5144640;27;20491;-83
2020/12/30 11:33:44;;;;;;;10.80;7.23;;;6.10;67.30;;;;;;5165831;27;20480;-87
2020/12/30 11:36:11;;;;;;;7.70;7.00;;;6.00;67.40;;;;;;5157593;27;20459;-84
2020/12/30 11:38:38;;;;;;;7.80;7.00;;;5.90;67.10;;;;;;5153288;27;20468;-84
2020/12/30 11:41:06;;;;;;;8.43;7.10;;;6.00;67.60;;;;;;5153304;27;20439;-84
2020/12/30 11:43:33;;;;;;;6.67;5.90;;;6.10;67.50;;;;;;5154838;27;20462;-85
2020/12/30 11:46:00;;;;;;;6.53;5.93;;;6.10;67.40;;;;;;5149836;27;20820;-84
2020/12/30 11:48:26;;;;;;;7.17;6.43;;;6.10;67.40;;;;;;5145115;27;20456;-84
2020/12/30 11:50:53;;;;;;;12.50;7.10;;;6.00;67.00;;;;;;5148359;27;20549;-85
2020/12/30 11:53:20;;;;;;;7.33;6.47;;;6.00;67.60;;;;;;5149266;27;20526;-83
2020/12/30 11:55:46;;;;;;;7.80;7.00;;;6.10;67.50;;;;;;5131111;27;20952;-83
2020/12/30 11:58:14;;;;;;;7.00;6.30;;;6.30;67.30;;;;;;5155665;27;20467;-84
2020/12/30 12:00:41;;;;;;;7.77;6.63;;;6.40;66.90;;;;;;5157615;27;20453;-85
2020/12/30 12:03:08;;;;;;;6.93;6.20;;;6.60;66.40;;;;;;5153174;27;20445;-84
2020/12/30 12:08:47;;;;;;;8.50;6.50;;;6.80;66.30;;;;;;5136094;27;20454;-84
2020/12/30 12:11:15;;;;;;;8.40;6.13;;;6.80;66.10;;;;;;5157023;27;20461;-84
2020/12/30 12:14:08;;;;;;;5.97;5.47;;;6.70;65.70;;;;;;5159547;27;20447;-84
2020/12/30 12:16:37;;;;;;;6.17;5.57;;;6.60;65.30;;;;;;5158895;27;20443;-86
2020/12/30 12:19:07;;;;;;;7.00;5.83;;;6.40;65.30;;;;;;5131697;27;20498;-84
2020/12/30 12:21:39;;;;;;;10.47;6.40;;;6.40;65.90;;;;;;5156613;27;20442;-83
2020/12/30 12:24:06;;;;;;;6.63;5.60;;;6.40;65.80;;;;;;5154376;27;20462;-79
2020/12/30 12:26:32;;;;;;;6.70;6.10;;;6.50;65.80;;;;;;5144310;27;20465;-79
2020/12/30 12:29:00;;;;;;;11.80;7.30;;;6.40;65.70;;;;;;5150439;27;20745;-79
2020/12/30 12:31:27;;;;;;;8.60;7.60;;;6.60;65.90;;;;;;5140029;27;20473;-79
2020/12/30 12:33:54;;;;;;;13.90;7.50;;;6.60;65.80;;;;;;5140083;27;20463;-78
2020/12/30 12:36:20;;;;;;;11.10;7.50;;;6.90;65.80;;;;;;5134172;27;20490;-79
2020/12/30 12:38:47;;;;;;;8.70;7.23;;;6.80;65.60;;;;;;5139946;27;20456;-78
2020/12/30 12:41:15;;;;;;;9.07;6.37;;;6.80;65.70;;;;;;5149251;27;20461;-80
2020/12/30 12:43:42;;;;;;;8.07;6.57;;;6.90;65.70;;;;;;5141475;27;20442;-79
2020/12/30 12:46:13;;;;;;;9.20;6.87;;;6.90;65.90;;;;;;5136594;27;20538;-80
2020/12/30 12:48:40;;;;;;;15.10;6.60;;;6.90;65.90;;;;;;5137507;27;20550;-79
2020/12/30 12:51:11;;;;;;;10.00;5.80;;;6.80;65.10;;;;;;5138536;27;21016;-81
2020/12/30 12:53:38;;;;;;;9.67;5.10;;;6.70;65.40;;;;;;5146728;27;20454;-80
2020/12/30 12:56:04;;;;;;;7.43;4.63;;;6.70;65.30;;;;;;5149819;27;20476;-80
2020/12/30 12:58:34;;;;;;;5.83;4.43;;;6.50;65.10;;;;;;5148011;27;20718;-79